createdAt,value
2017-12-06T00:00:04.774Z,1019.93
2017-12-06T00:01:04.791Z,1019.96
2017-12-06T00:02:04.817Z,1019.89
2017-12-06T00:03:04.825Z,1019.9
2017-12-06T00:04:04.849Z,1019.91
2017-12-06T00:05:04.860Z,1019.95
2017-12-06T00:06:04.879Z,1019.99
2017-12-06T00:07:04.891Z,1020.02
2017-12-06T00:09:04.930Z,1019.92
2017-12-06T00:10:04.948Z,1020.01
2017-12-06T00:11:04.964Z,1020.02
2017-12-06T00:12:04.985Z,1020.03
2017-12-06T00:13:05.002Z,1020
2017-12-06T00:14:05.014Z,1020.03
2017-12-06T00:15:05.041Z,1020.06
2017-12-06T00:16:05.060Z,1020.03
2017-12-06T00:17:05.067Z,1020.07
2017-12-06T00:18:05.084Z,1019.98
2017-12-06T00:19:05.102Z,1020.07
2017-12-06T00:20:05.118Z,1020.1
2017-12-06T00:21:05.147Z,1020.09
2017-12-06T00:22:05.159Z,1020.03
2017-12-06T00:24:05.194Z,1020.11
2017-12-06T00:25:05.219Z,1020.18
2017-12-06T00:26:05.237Z,1020.15
2017-12-06T00:27:05.245Z,1020.07
2017-12-06T00:28:05.261Z,1020.14
2017-12-06T00:29:05.282Z,1020.17
2017-12-06T00:30:05.300Z,1020.17
2017-12-06T00:31:05.320Z,1020.17
2017-12-06T00:32:05.332Z,1020.2
2017-12-06T00:33:05.356Z,1020.12
2017-12-06T00:34:05.371Z,1020.25
2017-12-06T00:35:05.392Z,1020.24
2017-12-06T00:36:05.412Z,1020.1
2017-12-06T00:37:05.424Z,1020.15
2017-12-06T00:38:05.439Z,1020.13
2017-12-06T00:39:05.462Z,1020.1
2017-12-06T00:40:05.484Z,1020.08
2017-12-06T00:41:05.501Z,1020.04
2017-12-06T00:42:05.520Z,1020.1
2017-12-06T00:43:05.526Z,1020.11
2017-12-06T00:44:05.550Z,1019.98
2017-12-06T00:45:05.568Z,1020.14
2017-12-06T00:46:05.585Z,1020.07
2017-12-06T00:47:05.600Z,1020.11
2017-12-06T00:48:05.614Z,1020
2017-12-06T00:49:05.638Z,1020.09
2017-12-06T00:50:05.650Z,1020.08
2017-12-06T00:51:05.682Z,1020.08
2017-12-06T00:52:05.696Z,1020.05
2017-12-06T00:53:05.710Z,1020.03
2017-12-06T00:54:05.730Z,1020.08
2017-12-06T00:56:05.760Z,1020.06
2017-12-06T00:57:05.778Z,1020
2017-12-06T00:58:05.799Z,1020.02
2017-12-06T00:59:05.809Z,1019.97
2017-12-06T01:00:05.834Z,1020.02
2017-12-06T01:01:05.848Z,1019.99
2017-12-06T01:02:05.872Z,1020.05
2017-12-06T01:03:05.885Z,1020.02
2017-12-06T01:04:05.908Z,1020.12
2017-12-06T01:05:05.925Z,1020.09
2017-12-06T01:06:05.934Z,1020.13
2017-12-06T01:07:05.950Z,1020.04
2017-12-06T01:08:05.975Z,1020.13
2017-12-06T01:09:05.985Z,1020.15
2017-12-06T01:10:06.007Z,1020.07
2017-12-06T01:12:06.038Z,1020.15
2017-12-06T01:13:06.065Z,1020.19
2017-12-06T01:14:06.080Z,1020.18
2017-12-06T01:15:06.096Z,1020.26
2017-12-06T01:16:06.119Z,1020.2
2017-12-06T01:17:06.136Z,1020.23
2017-12-06T01:18:06.144Z,1020.22
2017-12-06T01:19:06.163Z,1020.14
2017-12-06T01:20:06.190Z,1020.32
2017-12-06T01:21:06.214Z,1020.3
2017-12-06T01:22:06.221Z,1020.28
2017-12-06T01:23:06.234Z,1020.31
2017-12-06T01:24:06.256Z,1020.38
2017-12-06T01:25:06.278Z,1020.31
2017-12-06T01:26:06.291Z,1020.3
2017-12-06T01:28:06.326Z,1020.25
2017-12-06T01:29:06.338Z,1020.28
2017-12-06T01:30:06.363Z,1020.28
2017-12-06T01:31:06.379Z,1020.26
2017-12-06T01:32:06.448Z,1020.28
2017-12-06T01:33:06.413Z,1020.2
2017-12-06T01:34:06.427Z,1020.29
2017-12-06T01:35:06.452Z,1020.24
2017-12-06T01:36:06.472Z,1020.3
2017-12-06T01:37:06.487Z,1020.25
2017-12-06T01:38:06.505Z,1020.25
2017-12-06T01:39:06.515Z,1020.32
2017-12-06T01:40:06.533Z,1020.21
2017-12-06T01:41:06.556Z,1020.27
2017-12-06T01:42:06.579Z,1020.16
2017-12-06T01:44:06.614Z,1020.2
2017-12-06T01:45:06.631Z,1020.27
2017-12-06T01:46:06.644Z,1020.18
2017-12-06T01:47:06.663Z,1020.26
2017-12-06T01:48:06.676Z,1020.28
2017-12-06T01:49:06.691Z,1020.27
2017-12-06T01:50:06.710Z,1020.27
2017-12-06T01:51:06.733Z,1020.24
2017-12-06T01:52:06.746Z,1020.21
2017-12-06T01:53:06.766Z,1020.21
2017-12-06T01:54:06.788Z,1020.26
2017-12-06T01:55:06.805Z,1020.29
2017-12-06T01:56:06.823Z,1020.29
2017-12-06T01:57:06.833Z,1020.32
2017-12-06T01:59:06.870Z,1020.26
2017-12-06T02:00:06.888Z,1020.24
2017-12-06T02:01:06.909Z,1020.19
2017-12-06T02:02:06.928Z,1020.22
2017-12-06T02:03:06.993Z,1020.26
2017-12-06T02:04:06.969Z,1020.23
2017-12-06T02:05:06.980Z,1020.27
2017-12-06T02:06:06.995Z,1020.23
2017-12-06T02:07:07.012Z,1020.23
2017-12-06T02:08:07.036Z,1020.23
2017-12-06T02:09:07.057Z,1020.29
2017-12-06T02:10:07.069Z,1020.16
2017-12-06T02:11:07.081Z,1020.27
2017-12-06T02:12:07.100Z,1020.19
2017-12-06T02:13:07.128Z,1020.17
2017-12-06T02:14:07.141Z,1020.17
2017-12-06T02:15:07.164Z,1020.17
2017-12-06T02:16:07.175Z,1020.11
2017-12-06T02:17:07.189Z,1020.19
2017-12-06T02:18:07.205Z,1020.15
2017-12-06T02:19:07.227Z,1020.21
2017-12-06T02:20:07.243Z,1020.09
2017-12-06T02:21:07.270Z,1020.11
2017-12-06T02:22:07.283Z,1020.2
2017-12-06T02:23:07.302Z,1020.12
2017-12-06T02:24:07.319Z,1020.1
2017-12-06T02:25:07.337Z,1020.07
2017-12-06T02:26:07.358Z,1020.05
2017-12-06T02:27:07.375Z,1019.98
2017-12-06T02:28:07.383Z,1020.06
2017-12-06T02:29:07.405Z,1020.02
2017-12-06T02:31:07.437Z,1020.07
2017-12-06T02:32:07.460Z,1020.01
2017-12-06T02:33:07.478Z,1019.96
2017-12-06T02:34:07.499Z,1020.05
2017-12-06T02:35:07.515Z,1020.03
2017-12-06T02:36:07.531Z,1020.02
2017-12-06T02:37:07.542Z,1020.05
2017-12-06T02:38:07.567Z,1020.05
2017-12-06T02:39:07.590Z,1019.99
2017-12-06T02:40:07.594Z,1019.91
2017-12-06T02:41:07.620Z,1020.01
2017-12-06T02:42:07.636Z,1020.01
2017-12-06T02:43:07.659Z,1020.08
2017-12-06T02:44:07.674Z,1019.98
2017-12-06T02:45:07.690Z,1020
2017-12-06T02:47:07.726Z,1020.05
2017-12-06T02:48:07.742Z,1020.03
2017-12-06T02:49:07.760Z,1019.96
2017-12-06T02:50:07.772Z,1019.98
2017-12-06T02:51:07.793Z,1020
2017-12-06T02:52:07.814Z,1020
2017-12-06T02:53:07.824Z,1020
2017-12-06T02:54:07.844Z,1019.95
2017-12-06T02:55:07.865Z,1020.02
2017-12-06T02:56:07.881Z,1019.93
2017-12-06T02:57:07.910Z,1019.88
2017-12-06T02:58:07.919Z,1019.9
2017-12-06T02:59:07.930Z,1019.91
2017-12-06T03:00:07.955Z,1019.85
2017-12-06T03:01:07.976Z,1019.9
2017-12-06T03:03:08.000Z,1019.83
2017-12-06T03:04:08.019Z,1019.84
2017-12-06T03:05:08.035Z,1019.83
2017-12-06T03:06:08.068Z,1019.84
2017-12-06T03:07:08.075Z,1019.83
2017-12-06T03:08:08.095Z,1019.83
2017-12-06T03:09:08.106Z,1019.84
2017-12-06T03:10:08.130Z,1019.85
2017-12-06T03:11:08.152Z,1019.79
2017-12-06T03:12:08.162Z,1019.79
2017-12-06T03:13:08.181Z,1019.77
2017-12-06T03:14:08.204Z,1019.74
2017-12-06T03:15:08.211Z,1019.78
2017-12-06T03:16:08.235Z,1019.78
2017-12-06T03:17:08.247Z,1019.76
2017-12-06T03:19:08.288Z,1019.73
2017-12-06T03:20:08.307Z,1019.71
2017-12-06T03:21:08.317Z,1019.69
2017-12-06T03:22:08.345Z,1019.73
2017-12-06T03:23:08.363Z,1019.69
2017-12-06T03:24:08.370Z,1019.69
2017-12-06T03:25:08.393Z,1019.67
2017-12-06T03:26:08.406Z,1019.72
2017-12-06T03:27:08.433Z,1019.7
2017-12-06T03:28:08.448Z,1019.69
2017-12-06T03:29:08.459Z,1019.75
2017-12-06T03:30:08.485Z,1019.69
2017-12-06T03:31:08.585Z,1019.64
2017-12-06T03:32:08.515Z,1019.62
2017-12-06T03:34:08.554Z,1019.62
2017-12-06T03:35:08.568Z,1019.62
2017-12-06T03:36:08.588Z,1019.6
2017-12-06T03:37:08.605Z,1019.61
2017-12-06T03:38:08.625Z,1019.53
2017-12-06T03:39:08.634Z,1019.68
2017-12-06T03:40:08.658Z,1019.57
2017-12-06T03:41:08.674Z,1019.63
2017-12-06T03:42:08.691Z,1019.57
2017-12-06T03:43:08.712Z,1019.57
2017-12-06T03:44:08.734Z,1019.61
2017-12-06T03:45:08.751Z,1019.57
2017-12-06T03:46:08.768Z,1019.58
2017-12-06T03:47:08.775Z,1019.62
2017-12-06T03:48:08.803Z,1019.57
2017-12-06T03:49:08.816Z,1019.5
2017-12-06T03:50:08.839Z,1019.55
2017-12-06T03:51:08.856Z,1019.56
2017-12-06T03:52:08.865Z,1019.54
2017-12-06T03:53:08.882Z,1019.58
2017-12-06T03:54:08.902Z,1019.6
2017-12-06T03:55:08.917Z,1019.6
2017-12-06T03:56:08.935Z,1019.58
2017-12-06T03:57:08.951Z,1019.53
2017-12-06T03:58:08.974Z,1019.47
2017-12-06T03:59:08.993Z,1019.56
2017-12-06T04:00:09.019Z,1019.51
2017-12-06T04:01:09.028Z,1019.48
2017-12-06T04:02:09.045Z,1019.49
2017-12-06T04:03:09.169Z,1019.44
2017-12-06T04:04:09.080Z,1019.48
2017-12-06T04:06:09.114Z,1019.5
2017-12-06T04:07:09.132Z,1019.51
2017-12-06T04:08:09.144Z,1019.58
2017-12-06T04:09:09.178Z,1019.56
2017-12-06T04:10:09.186Z,1019.57
2017-12-06T04:11:09.203Z,1019.54
2017-12-06T04:12:09.216Z,1019.53
2017-12-06T04:13:09.243Z,1019.51
2017-12-06T04:14:09.252Z,1019.52
2017-12-06T04:15:09.275Z,1019.49
2017-12-06T04:16:09.295Z,1019.5
2017-12-06T04:17:09.310Z,1019.48
2017-12-06T04:18:09.332Z,1019.46
2017-12-06T04:19:09.348Z,1019.45
2017-12-06T04:20:09.360Z,1019.38
2017-12-06T04:22:09.392Z,1019.39
2017-12-06T04:23:09.414Z,1019.4
2017-12-06T04:24:09.431Z,1019.34
2017-12-06T04:25:09.448Z,1019.44
2017-12-06T04:26:09.468Z,1019.35
2017-12-06T04:27:09.479Z,1019.3
2017-12-06T04:28:09.508Z,1019.3
2017-12-06T04:29:09.519Z,1019.25
2017-12-06T04:30:09.536Z,1019.32
2017-12-06T04:31:09.550Z,1019.37
2017-12-06T04:32:09.568Z,1019.36
2017-12-06T04:33:09.589Z,1019.37
2017-12-06T04:34:09.608Z,1019.34
2017-12-06T04:35:09.627Z,1019.31
2017-12-06T04:36:09.640Z,1019.27
2017-12-06T04:38:09.684Z,1019.38
2017-12-06T04:39:09.701Z,1019.39
2017-12-06T04:40:09.709Z,1019.37
2017-12-06T04:41:09.728Z,1019.4
2017-12-06T04:42:09.747Z,1019.39
2017-12-06T04:43:09.772Z,1019.45
2017-12-06T04:44:09.783Z,1019.32
2017-12-06T04:45:09.803Z,1019.36
2017-12-06T04:46:09.820Z,1019.4
2017-12-06T04:47:09.842Z,1019.44
2017-12-06T04:48:09.851Z,1019.44
2017-12-06T04:49:09.866Z,1019.45
2017-12-06T04:50:09.894Z,1019.41
2017-12-06T04:51:09.906Z,1019.36
2017-12-06T04:52:09.918Z,1019.32
2017-12-06T04:54:09.954Z,1019.36
2017-12-06T04:55:09.972Z,1019.33
2017-12-06T04:56:09.989Z,1019.34
2017-12-06T04:57:10.012Z,1019.35
2017-12-06T04:58:10.029Z,1019.31
2017-12-06T04:59:10.053Z,1019.4
2017-12-06T05:00:10.064Z,1019.22
2017-12-06T05:01:10.078Z,1019.3
2017-12-06T05:02:10.096Z,1019.28
2017-12-06T05:03:10.111Z,1019.23
2017-12-06T05:04:10.136Z,1019.25
2017-12-06T05:05:10.157Z,1019.33
2017-12-06T05:06:10.166Z,1019.29
2017-12-06T05:07:10.194Z,1019.36
2017-12-06T05:09:10.228Z,1019.36
2017-12-06T05:10:10.236Z,1019.34
2017-12-06T05:11:10.253Z,1019.27
2017-12-06T05:12:10.278Z,1019.33
2017-12-06T05:13:10.293Z,1019.36
2017-12-06T05:14:10.310Z,1019.32
2017-12-06T05:15:10.334Z,1019.34
2017-12-06T05:16:10.346Z,1019.3
2017-12-06T05:17:10.357Z,1019.19
2017-12-06T05:18:10.380Z,1019.25
2017-12-06T05:19:10.400Z,1019.26
2017-12-06T05:20:10.424Z,1019.28
2017-12-06T05:21:10.482Z,1019.21
2017-12-06T05:22:10.446Z,1019.24
2017-12-06T05:23:10.474Z,1019.25
2017-12-06T05:24:10.484Z,1019.18
2017-12-06T05:25:10.503Z,1019.31
2017-12-06T05:26:10.515Z,1019.28
2017-12-06T05:27:10.543Z,1019.26
2017-12-06T05:28:10.557Z,1019.26
2017-12-06T05:29:10.574Z,1019.19
2017-12-06T05:30:10.597Z,1019.14
2017-12-06T05:31:10.608Z,1019.22
2017-12-06T05:32:10.631Z,1019.17
2017-12-06T05:33:10.651Z,1019.21
2017-12-06T05:34:10.661Z,1019.2
2017-12-06T05:35:10.674Z,1019.28
2017-12-06T05:36:10.701Z,1019.26
2017-12-06T05:37:10.726Z,1019.17
2017-12-06T05:38:10.736Z,1019.19
2017-12-06T05:39:10.743Z,1019.25
2017-12-06T05:41:10.789Z,1019.15
2017-12-06T05:42:10.806Z,1019.18
2017-12-06T05:43:10.817Z,1019.24
2017-12-06T05:44:10.836Z,1019.18
2017-12-06T05:45:10.853Z,1019.17
2017-12-06T05:46:10.877Z,1019.13
2017-12-06T05:47:10.895Z,1019.07
2017-12-06T05:48:10.906Z,1019.06
2017-12-06T05:49:10.928Z,1019.17
2017-12-06T05:50:10.943Z,1019.13
2017-12-06T05:51:10.954Z,1019.1
2017-12-06T05:52:10.980Z,1019.1
2017-12-06T05:53:10.993Z,1019.17
2017-12-06T05:54:11.017Z,1019.12
2017-12-06T05:55:11.025Z,1019.17
2017-12-06T05:57:11.071Z,1019.13
2017-12-06T05:58:11.086Z,1019.15
2017-12-06T05:59:11.095Z,1019.2
2017-12-06T06:00:11.129Z,1019.19
2017-12-06T06:01:11.133Z,1019.15
2017-12-06T06:02:11.154Z,1019.13
2017-12-06T06:03:11.170Z,1019.13
2017-12-06T06:04:11.188Z,1019.07
2017-12-06T06:05:11.205Z,1019.01
2017-12-06T06:06:11.233Z,1019.15
2017-12-06T06:07:11.240Z,1019.14
2017-12-06T06:08:11.259Z,1019.16
2017-12-06T06:09:11.281Z,1019.18
2017-12-06T06:10:11.295Z,1019.16
2017-12-06T06:11:11.316Z,1018.96
2017-12-06T06:13:11.345Z,1019.09
2017-12-06T06:14:11.368Z,1019.2
2017-12-06T06:15:11.385Z,1019.09
2017-12-06T06:16:11.407Z,1019.12
2017-12-06T06:17:11.411Z,1019.15
2017-12-06T06:18:11.432Z,1019.15
2017-12-06T06:19:11.450Z,1019.16
2017-12-06T06:20:11.473Z,1019.17
2017-12-06T06:21:11.485Z,1019.17
2017-12-06T06:22:11.505Z,1019.39
2017-12-06T06:23:11.528Z,1019.14
2017-12-06T06:24:11.532Z,1019.16
2017-12-06T06:25:11.550Z,1019.13
2017-12-06T06:26:11.574Z,1019.15
2017-12-06T06:27:11.586Z,1019.18
2017-12-06T06:29:11.630Z,1019.12
2017-12-06T06:30:11.639Z,1019.17
2017-12-06T06:31:11.656Z,1019.22
2017-12-06T06:32:11.674Z,1019.24
2017-12-06T06:33:11.696Z,1019.24
2017-12-06T06:34:11.711Z,1019.19
2017-12-06T06:35:11.736Z,1019.2
2017-12-06T06:36:11.753Z,1019.26
2017-12-06T06:37:11.765Z,1019.32
2017-12-06T06:38:11.784Z,1019.29
2017-12-06T06:39:11.801Z,1019.44
2017-12-06T06:40:11.819Z,1019.31
2017-12-06T06:41:11.832Z,1019.33
2017-12-06T06:42:11.856Z,1019.4
2017-12-06T06:44:11.884Z,1019.42
2017-12-06T06:45:11.911Z,1019.37
2017-12-06T06:46:11.929Z,1019.33
2017-12-06T06:47:11.937Z,1019.35
2017-12-06T06:48:11.959Z,1019.4
2017-12-06T06:49:11.970Z,1019.47
2017-12-06T06:50:11.995Z,1019.39
2017-12-06T06:51:12.013Z,1019.39
2017-12-06T06:52:12.029Z,1019.36
2017-12-06T06:53:12.047Z,1019.35
2017-12-06T06:54:12.071Z,1019.36
2017-12-06T06:55:12.084Z,1019.31
2017-12-06T06:56:12.098Z,1019.39
2017-12-06T06:57:12.116Z,1019.42
2017-12-06T06:58:12.130Z,1019.33
2017-12-06T06:59:12.151Z,1019.3
2017-12-06T07:00:12.165Z,1019.34
2017-12-06T07:01:12.189Z,1019.31
2017-12-06T07:02:12.208Z,1019.34
2017-12-06T07:03:12.224Z,1019.31
2017-12-06T07:04:12.238Z,1019.28
2017-12-06T07:05:12.262Z,1019.29
2017-12-06T07:06:12.294Z,1019.17
2017-12-06T07:07:12.286Z,1019.22
2017-12-06T07:08:12.305Z,1019.19
2017-12-06T07:09:12.334Z,1019.25
2017-12-06T07:10:12.345Z,1019.23
2017-12-06T07:11:12.362Z,1019.19
2017-12-06T07:12:12.386Z,1019.3
2017-12-06T07:13:12.393Z,1019.13
2017-12-06T07:14:12.409Z,1019.2
2017-12-06T07:16:12.447Z,1019.27
2017-12-06T07:17:12.468Z,1019.23
2017-12-06T07:18:12.487Z,1019.3
2017-12-06T07:19:12.508Z,1019.25
2017-12-06T07:20:12.519Z,1019.24
2017-12-06T07:21:12.544Z,1019.11
2017-12-06T07:22:12.555Z,1019.26
2017-12-06T07:23:12.579Z,1019.17
2017-12-06T07:24:12.597Z,1019.24
2017-12-06T07:25:12.614Z,1019.22
2017-12-06T07:26:12.630Z,1019.21
2017-12-06T07:27:12.638Z,1019.24
2017-12-06T07:28:12.663Z,1019.16
2017-12-06T07:29:12.672Z,1019.25
2017-12-06T07:30:12.691Z,1019.17
2017-12-06T07:32:12.733Z,1019.16
2017-12-06T07:33:12.748Z,1019.26
2017-12-06T07:34:12.771Z,1019.24
2017-12-06T07:35:12.783Z,1019.2
2017-12-06T07:36:12.802Z,1019.16
2017-12-06T07:37:12.816Z,1019.17
2017-12-06T07:38:12.841Z,1019.23
2017-12-06T07:39:12.852Z,1019.27
2017-12-06T07:40:12.877Z,1019.24
2017-12-06T07:41:12.889Z,1019.25
2017-12-06T07:42:12.902Z,1019.27
2017-12-06T07:43:12.926Z,1019.25
2017-12-06T07:44:12.937Z,1019.23
2017-12-06T07:45:12.953Z,1019.21
2017-12-06T07:46:12.975Z,1019.24
2017-12-06T07:48:13.009Z,1019.21
2017-12-06T07:49:13.030Z,1019.16
2017-12-06T07:50:13.048Z,1019.18
2017-12-06T07:51:13.064Z,1019.26
2017-12-06T07:52:13.086Z,1019.26
2017-12-06T07:53:13.103Z,1019.24
2017-12-06T07:54:13.117Z,1019.24
2017-12-06T07:55:13.134Z,1019.17
2017-12-06T07:56:13.152Z,1019.26
2017-12-06T07:57:13.163Z,1019.17
2017-12-06T07:58:13.188Z,1019.17
2017-12-06T07:59:13.204Z,1019.12
2017-12-06T08:00:13.226Z,1019.18
2017-12-06T08:01:13.235Z,1019.11
2017-12-06T08:02:13.253Z,1019.2
2017-12-06T08:04:13.287Z,1019.13
2017-12-06T08:05:13.319Z,1019.18
2017-12-06T08:06:13.332Z,1019.16
2017-12-06T08:07:13.349Z,1019.26
2017-12-06T08:08:13.368Z,1019.26
2017-12-06T08:09:13.378Z,1019.11
2017-12-06T08:10:13.397Z,1019.21
2017-12-06T08:11:13.419Z,1019.26
2017-12-06T08:12:13.432Z,1019.26
2017-12-06T08:13:13.450Z,1019.21
2017-12-06T08:14:13.466Z,1019.28
2017-12-06T08:15:13.483Z,1019.24
2017-12-06T08:16:13.501Z,1019.17
2017-12-06T08:17:13.521Z,1019.24
2017-12-06T08:19:13.561Z,1019.26
2017-12-06T08:20:13.572Z,1019.29
2017-12-06T08:21:13.588Z,1019.13
2017-12-06T08:22:13.604Z,1019.25
2017-12-06T08:23:13.627Z,1019.18
2017-12-06T08:24:13.645Z,1019.23
2017-12-06T08:25:13.666Z,1019.24
2017-12-06T08:26:13.685Z,1019.22
2017-12-06T08:27:13.702Z,1019.25
2017-12-06T08:28:13.724Z,1019.23
2017-12-06T08:29:13.727Z,1019.24
2017-12-06T08:30:13.772Z,1019.29
2017-12-06T08:31:13.767Z,1019.23
2017-12-06T08:32:13.779Z,1019.34
2017-12-06T08:33:13.808Z,1019.33
2017-12-06T08:34:13.814Z,1019.3
2017-12-06T08:35:13.837Z,1019.35
2017-12-06T08:36:13.851Z,1019.29
2017-12-06T08:37:13.882Z,1019.31
2017-12-06T08:38:13.895Z,1019.29
2017-12-06T08:39:13.903Z,1019.33
2017-12-06T08:40:13.926Z,1019.36
2017-12-06T08:41:13.944Z,1019.2
2017-12-06T08:42:13.959Z,1019.23
2017-12-06T08:43:13.983Z,1019.38
2017-12-06T08:44:13.998Z,1019.3
2017-12-06T08:45:14.015Z,1019.04
2017-12-06T08:46:14.029Z,1019.14
2017-12-06T08:47:14.050Z,1019.13
2017-12-06T08:48:14.068Z,1019.28
2017-12-06T08:49:14.090Z,1019.26
2017-12-06T08:51:14.120Z,1019.17
2017-12-06T08:52:14.133Z,1019.11
2017-12-06T08:53:14.160Z,1019.24
2017-12-06T08:54:14.167Z,1019.18
2017-12-06T08:55:14.192Z,1019.19
2017-12-06T08:56:14.209Z,1019.23
2017-12-06T08:57:14.220Z,1019.17
2017-12-06T08:58:14.249Z,1019.23
2017-12-06T08:59:14.256Z,1019.25
2017-12-06T09:00:14.280Z,1019.11
2017-12-06T09:01:14.297Z,1019.24
2017-12-06T09:02:14.314Z,1019.23
2017-12-06T09:03:14.333Z,1019.29
2017-12-06T09:04:14.347Z,1019.32
2017-12-06T09:05:14.364Z,1019.28
2017-12-06T09:07:14.403Z,1019.35
2017-12-06T09:08:14.419Z,1019.28
2017-12-06T09:09:14.441Z,1019.33
2017-12-06T09:10:14.450Z,1019.39
2017-12-06T09:11:14.466Z,1019.33
2017-12-06T09:12:14.488Z,1019.35
2017-12-06T09:13:14.506Z,1019.3
2017-12-06T09:14:14.537Z,1019.36
2017-12-06T09:15:14.537Z,1019.35
2017-12-06T09:16:14.566Z,1019.34
2017-12-06T09:17:14.582Z,1019.38
2017-12-06T09:18:14.590Z,1019.38
2017-12-06T09:19:14.613Z,1019.32
2017-12-06T09:20:14.631Z,1019.28
2017-12-06T09:21:14.642Z,1019.26
2017-12-06T09:23:14.688Z,1019.43
2017-12-06T09:24:14.708Z,1019.25
2017-12-06T09:25:14.720Z,1019.34
2017-12-06T09:26:14.735Z,1019.33
2017-12-06T09:27:14.747Z,1019.24
2017-12-06T09:28:14.771Z,1019.25
2017-12-06T09:29:14.783Z,1019.34
2017-12-06T09:30:14.810Z,1019.19
2017-12-06T09:31:14.824Z,1019.27
2017-12-06T09:32:14.837Z,1019.19
2017-12-06T09:33:14.858Z,1019.23
2017-12-06T09:34:14.873Z,1019.31
2017-12-06T09:35:14.900Z,1019.22
2017-12-06T09:36:14.912Z,1019.16
2017-12-06T09:37:14.931Z,1019.21
2017-12-06T09:39:14.966Z,1019.22
2017-12-06T09:40:14.989Z,1019.16
2017-12-06T09:41:15.002Z,1019.11
2017-12-06T09:42:15.019Z,1019.17
2017-12-06T09:43:15.035Z,1019.28
2017-12-06T09:44:15.057Z,1019.2
2017-12-06T09:45:15.071Z,1019.21
2017-12-06T09:46:15.083Z,1019.22
2017-12-06T09:47:15.108Z,1019.19
2017-12-06T09:48:15.128Z,1019.06
2017-12-06T09:49:15.140Z,1019.14
2017-12-06T09:50:15.164Z,1019.22
2017-12-06T09:51:15.176Z,1019.23
2017-12-06T09:52:15.190Z,1019.18
2017-12-06T09:54:15.239Z,1019.18
2017-12-06T09:55:15.246Z,1019.16
2017-12-06T09:56:15.271Z,1019.19
2017-12-06T09:57:15.379Z,1019.2
2017-12-06T09:58:15.302Z,1019.2
2017-12-06T09:59:15.312Z,1019.18
2017-12-06T10:00:15.336Z,1019.21
2017-12-06T10:01:15.353Z,1019.2
2017-12-06T10:02:15.365Z,1019.16
2017-12-06T10:03:15.384Z,1019.14
2017-12-06T10:04:15.405Z,1019.06
2017-12-06T10:05:15.427Z,1019.24
2017-12-06T10:06:15.443Z,1019.1
2017-12-06T10:07:15.458Z,1019.24
2017-12-06T10:08:15.475Z,1019.21
2017-12-06T10:09:15.498Z,1019.16
2017-12-06T10:10:15.517Z,1019.18
2017-12-06T10:11:15.524Z,1019.16
2017-12-06T10:12:15.551Z,1019.25
2017-12-06T10:13:15.562Z,1019.01
2017-12-06T10:14:15.576Z,1019.06
2017-12-06T10:15:15.594Z,1019
2017-12-06T10:16:15.611Z,1019.02
2017-12-06T10:17:15.639Z,1019.1
2017-12-06T10:18:15.657Z,1019.2
2017-12-06T10:19:15.675Z,1019.11
2017-12-06T10:20:15.692Z,1019.08
2017-12-06T10:21:15.704Z,1019
2017-12-06T10:22:15.717Z,1019.06
2017-12-06T10:23:15.736Z,1019
2017-12-06T10:24:15.751Z,1018.85
2017-12-06T10:26:15.787Z,1018.92
2017-12-06T10:27:15.814Z,1018.94
2017-12-06T10:28:15.825Z,1019
2017-12-06T10:29:15.844Z,1019
2017-12-06T10:30:15.862Z,1018.99
2017-12-06T10:31:15.881Z,1018.99
2017-12-06T10:32:15.903Z,1019.09
2017-12-06T10:33:15.919Z,1018.97
2017-12-06T10:34:15.938Z,1019.03
2017-12-06T10:35:15.945Z,1018.94
2017-12-06T10:36:15.969Z,1018.99
2017-12-06T10:37:15.990Z,1018.97
2017-12-06T10:38:15.999Z,1018.97
2017-12-06T10:39:16.021Z,1019.01
2017-12-06T10:40:16.037Z,1018.99
2017-12-06T10:42:16.076Z,1019.14
2017-12-06T10:43:16.090Z,1019
2017-12-06T10:44:16.114Z,1019.04
2017-12-06T10:45:16.127Z,1019.04
2017-12-06T10:46:16.149Z,1018.98
2017-12-06T10:47:16.163Z,1019.01
2017-12-06T10:48:16.186Z,1018.96
2017-12-06T10:49:16.197Z,1018.95
2017-12-06T10:50:16.214Z,1018.93
2017-12-06T10:51:16.228Z,1019
2017-12-06T10:52:16.252Z,1018.95
2017-12-06T10:53:16.275Z,1018.89
2017-12-06T10:54:16.281Z,1018.92
2017-12-06T10:55:16.300Z,1018.93
2017-12-06T10:56:16.317Z,1018.88
2017-12-06T10:58:16.355Z,1018.83
2017-12-06T10:59:16.373Z,1018.93
2017-12-06T11:00:16.398Z,1018.88
2017-12-06T11:01:16.414Z,1018.82
2017-12-06T11:02:16.428Z,1018.83
2017-12-06T11:03:16.449Z,1018.77
2017-12-06T11:04:16.463Z,1018.8
2017-12-06T11:05:16.482Z,1018.72
2017-12-06T11:06:16.504Z,1018.76
2017-12-06T11:07:16.522Z,1018.87
2017-12-06T11:08:16.533Z,1018.8
2017-12-06T11:09:16.550Z,1018.78
2017-12-06T11:10:16.571Z,1018.78
2017-12-06T11:11:16.586Z,1018.75
2017-12-06T11:12:16.603Z,1018.76
2017-12-06T11:14:16.646Z,1018.8
2017-12-06T11:15:16.672Z,1018.73
2017-12-06T11:16:16.680Z,1018.69
2017-12-06T11:17:16.692Z,1018.84
2017-12-06T11:18:16.705Z,1018.73
2017-12-06T11:19:16.722Z,1018.89
2017-12-06T11:20:16.747Z,1018.8
2017-12-06T11:21:16.769Z,1018.79
2017-12-06T11:22:16.782Z,1018.83
2017-12-06T11:23:16.798Z,1018.75
2017-12-06T11:24:16.816Z,1018.77
2017-12-06T11:25:16.841Z,1018.81
2017-12-06T11:26:16.847Z,1018.84
2017-12-06T11:27:16.876Z,1018.8
2017-12-06T11:29:16.912Z,1018.8
2017-12-06T11:30:16.930Z,1018.67
2017-12-06T11:31:16.936Z,1018.78
2017-12-06T11:32:16.959Z,1018.8
2017-12-06T11:33:16.974Z,1018.68
2017-12-06T11:34:16.996Z,1018.82
2017-12-06T11:35:17.014Z,1018.9
2017-12-06T11:36:17.027Z,1018.77
2017-12-06T11:37:17.043Z,1018.73
2017-12-06T11:38:17.072Z,1018.68
2017-12-06T11:39:17.087Z,1018.75
2017-12-06T11:40:17.105Z,1018.75
2017-12-06T11:41:17.118Z,1018.73
2017-12-06T11:42:17.136Z,1018.72
2017-12-06T11:43:17.156Z,1018.71
2017-12-06T11:44:17.174Z,1018.69
2017-12-06T11:45:17.193Z,1018.72
2017-12-06T11:46:17.208Z,1018.68
2017-12-06T11:47:17.228Z,1018.7
2017-12-06T11:48:17.240Z,1018.74
2017-12-06T11:49:17.262Z,1018.68
2017-12-06T11:50:17.282Z,1018.71
2017-12-06T11:51:17.299Z,1018.8
2017-12-06T11:52:17.315Z,1018.55
2017-12-06T11:53:17.333Z,1018.64
2017-12-06T11:54:17.346Z,1018.71
2017-12-06T11:55:17.374Z,1018.68
2017-12-06T11:56:17.425Z,1018.72
2017-12-06T11:57:17.405Z,1018.69
2017-12-06T11:58:17.424Z,1018.63
2017-12-06T11:59:17.445Z,1018.73
2017-12-06T12:01:17.476Z,1018.7
2017-12-06T12:02:17.491Z,1018.7
2017-12-06T12:03:17.519Z,1018.67
2017-12-06T12:04:17.530Z,1018.73
2017-12-06T12:05:17.548Z,1018.6
2017-12-06T12:06:17.565Z,1018.7
2017-12-06T12:07:17.582Z,1018.8
2017-12-06T12:08:17.605Z,1018.64
2017-12-06T12:09:17.612Z,1018.7
2017-12-06T12:10:17.640Z,1018.7
2017-12-06T12:11:17.652Z,1018.78
2017-12-06T12:12:17.680Z,1018.69
2017-12-06T12:13:17.690Z,1018.75
2017-12-06T12:14:17.703Z,1018.66
2017-12-06T12:15:17.720Z,1018.75
2017-12-06T12:17:17.755Z,1018.71
2017-12-06T12:18:17.772Z,1018.68
2017-12-06T12:19:17.802Z,1018.63
2017-12-06T12:20:17.818Z,1018.64
2017-12-06T12:21:17.830Z,1018.6
2017-12-06T12:22:17.853Z,1018.6
2017-12-06T12:23:17.871Z,1018.61
2017-12-06T12:24:17.879Z,1018.62
2017-12-06T12:25:17.901Z,1018.65
2017-12-06T12:26:17.919Z,1018.63
2017-12-06T12:27:17.944Z,1018.48
2017-12-06T12:28:17.961Z,1018.54
2017-12-06T12:29:17.975Z,1018.52
2017-12-06T12:30:17.986Z,1018.48
2017-12-06T12:31:18.014Z,1018.58
2017-12-06T12:33:18.058Z,1018.49
2017-12-06T12:34:18.072Z,1018.52
2017-12-06T12:35:18.086Z,1018.53
2017-12-06T12:36:18.092Z,1018.51
2017-12-06T12:37:18.118Z,1018.52
2017-12-06T12:38:18.136Z,1018.65
2017-12-06T12:39:18.152Z,1018.59
2017-12-06T12:40:18.168Z,1018.57
2017-12-06T12:41:18.189Z,1018.49
2017-12-06T12:42:18.206Z,1018.59
2017-12-06T12:43:18.223Z,1018.47
2017-12-06T12:44:18.245Z,1018.64
2017-12-06T12:45:18.253Z,1018.68
2017-12-06T12:46:18.272Z,1018.54
2017-12-06T12:47:18.293Z,1018.57
2017-12-06T12:49:18.325Z,1018.51
2017-12-06T12:50:18.342Z,1018.75